createdAt,value
2018-11-05T00:00:19.721Z,30.63
2018-11-05T00:05:52.771Z,34.93
2018-11-05T00:08:22.865Z,35.33
2018-11-05T00:10:53.022Z,33.83
2018-11-05T00:13:23.172Z,31.80
2018-11-05T00:15:53.569Z,29.73
2018-11-05T00:18:23.667Z,31.30
2018-11-05T00:20:53.911Z,28.17
2018-11-05T00:23:24.031Z,34.73
2018-11-05T00:25:54.183Z,28.90
2018-11-05T00:28:24.302Z,30.67
2018-11-05T00:30:54.429Z,28.80
2018-11-05T00:33:24.602Z,38.30
2018-11-05T00:35:54.746Z,30.53
2018-11-05T00:38:24.925Z,35.10
2018-11-05T00:40:55.102Z,28.97
2018-11-05T00:43:25.248Z,35.00
2018-11-05T00:45:55.416Z,27.57
2018-11-05T00:48:25.599Z,27.57
2018-11-05T00:50:55.733Z,28.87
2018-11-05T00:53:25.852Z,24.77
2018-11-05T00:55:56.356Z,28.37
2018-11-05T00:58:26.513Z,31.30
2018-11-05T01:00:56.627Z,29.70
2018-11-05T01:03:26.743Z,30.10
2018-11-05T01:05:56.859Z,33.03
2018-11-05T01:08:26.942Z,26.53
2018-11-05T01:10:57.074Z,28.83
2018-11-05T01:13:27.332Z,28.40
2018-11-05T01:15:57.477Z,25.40
2018-11-05T01:18:27.575Z,31.50
2018-11-05T01:20:57.728Z,29.10
2018-11-05T01:23:28.111Z,36.63
2018-11-05T01:25:58.250Z,29.57
2018-11-05T01:28:28.369Z,35.13
2018-11-05T01:32:01.055Z,27.37
2018-11-05T01:34:31.173Z,30.43
2018-11-05T01:37:01.389Z,26.90
2018-11-05T01:39:31.609Z,31.20
2018-11-05T01:42:01.906Z,29.83
2018-11-05T01:44:32.093Z,30.33
2018-11-05T01:47:02.331Z,34.90
2018-11-05T01:49:32.588Z,34.87
2018-11-05T01:52:02.728Z,28.10
2018-11-05T01:54:32.810Z,34.20
2018-11-05T01:57:02.999Z,45.90
2018-11-05T01:59:33.110Z,29.10
2018-11-05T02:02:03.343Z,31.70
2018-11-05T02:04:33.942Z,42.07
2018-11-05T02:07:04.109Z,33.80
2018-11-05T02:09:34.251Z,35.10
2018-11-05T02:12:04.398Z,34.70
2018-11-05T02:14:34.612Z,36.13
2018-11-05T02:17:04.762Z,28.20
2018-11-05T02:19:35.111Z,34.97
2018-11-05T02:22:05.321Z,34.37
2018-11-05T02:24:35.391Z,30.73
2018-11-05T02:27:05.648Z,27.80
2018-11-05T02:29:35.843Z,29.13
2018-11-05T02:32:06.059Z,35.60
2018-11-05T02:34:36.156Z,28.17
2018-11-05T02:37:06.663Z,35.03
2018-11-05T02:39:36.766Z,26.03
2018-11-05T02:42:07.009Z,32.73
2018-11-05T02:44:37.108Z,34.33
2018-11-05T02:47:07.529Z,30.77
2018-11-05T02:49:37.662Z,36.37
2018-11-05T02:52:07.939Z,31.30
2018-11-05T02:54:38.114Z,34.90
2018-11-05T02:57:08.331Z,36.03
2018-11-05T02:59:38.400Z,27.27
2018-11-05T03:02:08.652Z,34.10
2018-11-05T03:04:38.775Z,32.67
2018-11-05T03:07:08.969Z,30.57
2018-11-05T03:09:39.109Z,25.70
2018-11-05T03:12:09.366Z,23.87
2018-11-05T03:14:39.524Z,24.83
2018-11-05T03:17:09.731Z,32.00
2018-11-05T03:19:40.083Z,29.50
2018-11-05T03:22:10.183Z,33.67
2018-11-05T03:24:40.301Z,39.40
2018-11-05T03:27:10.511Z,37.53
2018-11-05T03:29:40.650Z,37.07
2018-11-05T03:32:10.763Z,31.67
2018-11-05T03:34:41.022Z,33.73
2018-11-05T03:37:11.143Z,32.57
2018-11-05T03:39:41.325Z,28.63
2018-11-05T03:42:11.544Z,32.20
2018-11-05T03:44:41.692Z,27.80
2018-11-05T03:47:12.016Z,34.23
2018-11-05T03:49:42.358Z,31.60
2018-11-05T03:52:12.455Z,33.10
2018-11-05T03:54:42.579Z,29.83
2018-11-05T03:57:12.698Z,32.13
2018-11-05T03:59:42.831Z,38.10
2018-11-05T04:02:12.962Z,36.27
2018-11-05T04:04:43.105Z,33.93
2018-11-05T04:07:13.242Z,34.60
2018-11-05T04:09:43.381Z,37.57
2018-11-05T04:12:13.538Z,31.90
2018-11-05T04:14:43.712Z,43.10
2018-11-05T04:17:13.830Z,49.67
2018-11-05T04:19:44.088Z,51.67
2018-11-05T04:22:14.288Z,45.67
2018-11-05T04:24:44.403Z,40.80
2018-11-05T04:27:14.490Z,43.97
2018-11-05T04:29:44.615Z,46.80
2018-11-05T04:32:14.781Z,50.20
2018-11-05T04:34:44.881Z,49.10
2018-11-05T04:37:14.951Z,54.43
2018-11-05T04:39:45.089Z,51.23
2018-11-05T04:42:15.225Z,47.00
2018-11-05T04:44:45.302Z,46.53
2018-11-05T04:47:15.605Z,39.87
2018-11-05T04:49:45.755Z,39.43
2018-11-05T04:52:15.868Z,41.63
2018-11-05T04:54:46.018Z,48.77
2018-11-05T04:57:16.161Z,48.43
2018-11-05T04:59:46.296Z,45.90
2018-11-05T05:02:16.431Z,50.47
2018-11-05T05:04:46.563Z,44.17
2018-11-05T05:07:16.724Z,41.73
2018-11-05T05:09:46.964Z,45.70
2018-11-05T05:12:17.125Z,38.57
2018-11-05T05:14:47.263Z,38.43
2018-11-05T05:17:17.380Z,38.00
2018-11-05T05:19:47.543Z,40.90
2018-11-05T05:22:17.841Z,45.23
2018-11-05T05:24:48.031Z,46.47
2018-11-05T05:27:18.243Z,40.00
2018-11-05T05:29:48.416Z,48.73
2018-11-05T05:32:18.710Z,48.23
2018-11-05T05:34:49.014Z,38.10
2018-11-05T05:37:19.439Z,41.43
2018-11-05T05:39:49.749Z,40.47
2018-11-05T05:42:20.056Z,55.13
2018-11-05T05:44:50.205Z,49.27
2018-11-05T05:47:20.384Z,58.90
2018-11-05T05:49:50.633Z,54.30
2018-11-05T05:52:20.865Z,55.93
2018-11-05T05:54:51.799Z,62.63
2018-11-05T05:57:24.169Z,57.40
2018-11-05T05:59:54.473Z,80.43
2018-11-05T06:02:25.133Z,65.87
2018-11-05T06:04:55.524Z,81.73
2018-11-05T06:07:28.812Z,94.00
2018-11-05T06:09:59.079Z,85.03
2018-11-05T06:12:29.305Z,72.10
2018-11-05T06:14:59.462Z,76.53
2018-11-05T06:17:30.006Z,79.80
2018-11-05T06:20:00.512Z,92.60
2018-11-05T06:22:31.055Z,68.93
2018-11-05T06:25:02.823Z,63.97
2018-11-05T06:27:40.056Z,77.60
2018-11-05T06:30:14.039Z,70.80
2018-11-05T06:32:45.129Z,76.03
2018-11-05T06:35:15.411Z,100.10
2018-11-05T06:37:45.623Z,73.70
2018-11-05T06:40:18.223Z,139.03
2018-11-05T06:42:48.875Z,97.33
2018-11-05T06:45:20.950Z,82.80
2018-11-05T06:47:51.864Z,75.50
2018-11-05T06:50:24.756Z,75.83
2018-11-05T06:52:55.028Z,90.93
2018-11-05T06:55:25.231Z,106.07
2018-11-05T06:57:55.538Z,74.07
2018-11-05T07:00:26.483Z,67.43
2018-11-05T07:02:56.636Z,98.53
2018-11-05T07:05:26.855Z,74.03
2018-11-05T07:07:57.176Z,100.57
2018-11-05T07:10:27.349Z,65.63
2018-11-05T07:12:57.560Z,76.80
2018-11-05T07:15:28.043Z,96.20
2018-11-05T07:17:58.433Z,126.43
2018-11-05T07:20:28.751Z,81.30
2018-11-05T07:23:05.922Z,103.00
2018-11-05T07:25:36.461Z,163.33
2018-11-05T07:28:06.659Z,62.97
2018-11-05T07:30:36.759Z,95.40
2018-11-05T07:33:07.336Z,82.63
2018-11-05T07:35:37.575Z,92.13
2018-11-05T07:38:07.871Z,86.47
2018-11-05T07:40:38.471Z,106.87
2018-11-05T07:43:08.692Z,69.77
2018-11-05T07:45:39.169Z,68.47
2018-11-05T07:48:10.001Z,66.57
2018-11-05T07:50:40.526Z,181.70
2018-11-05T07:53:11.059Z,73.97
2018-11-05T07:55:41.408Z,89.67
2018-11-05T07:58:11.683Z,72.50
2018-11-05T08:00:47.199Z,78.83
2018-11-05T08:03:17.394Z,95.17
2018-11-05T08:05:47.495Z,57.80
2018-11-05T08:08:17.752Z,58.20
2018-11-05T08:10:48.028Z,82.37
2018-11-05T08:13:18.219Z,84.57
2018-11-05T08:15:48.434Z,73.03
2018-11-05T08:18:18.757Z,63.10
2018-11-05T08:20:49.154Z,70.53
2018-11-05T08:23:19.452Z,71.70
2018-11-05T08:25:49.643Z,74.37
2018-11-05T08:28:20.456Z,70.17
2018-11-05T08:30:51.081Z,68.97
2018-11-05T08:33:21.578Z,62.63
2018-11-05T08:35:51.953Z,74.07
2018-11-05T08:38:22.350Z,62.27
2018-11-05T08:40:52.773Z,64.73
2018-11-05T08:43:23.370Z,58.53
2018-11-05T08:45:53.900Z,64.33
2018-11-05T08:48:24.072Z,60.60
2018-11-05T08:50:54.462Z,76.73
2018-11-05T08:53:24.523Z,62.77
2018-11-05T08:55:55.074Z,73.63
2018-11-05T08:58:25.553Z,56.63
2018-11-05T09:03:03.006Z,59.67
2018-11-05T09:05:33.157Z,55.60
2018-11-05T09:08:03.291Z,54.13
2018-11-05T09:10:33.983Z,54.80
2018-11-05T09:13:04.277Z,50.00
2018-11-05T09:15:34.894Z,52.60
2018-11-05T09:18:05.220Z,50.97
2018-11-05T09:20:35.690Z,44.83
2018-11-05T09:23:06.207Z,46.70
2018-11-05T09:25:36.362Z,45.80
2018-11-05T09:28:07.552Z,42.77
2018-11-05T09:30:37.590Z,41.17
2018-11-05T09:33:08.203Z,42.90
2018-11-05T09:35:40.574Z,32.17
2018-11-05T09:38:11.166Z,35.10
2018-11-05T09:40:41.663Z,33.27
2018-11-05T09:43:12.022Z,29.83
2018-11-05T09:45:42.453Z,27.13
2018-11-05T09:48:12.888Z,28.20
2018-11-05T09:50:43.456Z,36.37
2018-11-05T09:53:13.759Z,33.50
2018-11-05T09:55:43.893Z,30.67
2018-11-05T09:58:14.075Z,29.50
2018-11-05T10:00:44.303Z,33.20
2018-11-05T10:03:15.882Z,30.80
2018-11-05T10:05:46.048Z,27.90
2018-11-05T10:08:17.487Z,25.93
2018-11-05T10:10:47.828Z,32.13
2018-11-05T10:13:20.034Z,30.13
2018-11-05T10:15:51.684Z,30.47
2018-11-05T10:18:23.707Z,32.83
2018-11-05T10:20:53.856Z,28.33
2018-11-05T10:23:23.980Z,32.10
2018-11-05T10:25:54.109Z,31.30
2018-11-05T10:28:24.257Z,26.60
2018-11-05T10:30:54.465Z,21.80
2018-11-05T10:33:24.770Z,29.37
2018-11-05T10:35:55.517Z,25.20
2018-11-05T10:38:26.023Z,28.93
2018-11-05T10:40:56.320Z,28.33
2018-11-05T10:43:54.387Z,24.80
2018-11-05T10:46:26.824Z,31.13
2018-11-05T10:48:57.678Z,28.43
2018-11-05T10:51:27.949Z,26.07
2018-11-05T10:53:58.101Z,25.20
2018-11-05T10:56:28.319Z,28.43
2018-11-05T10:58:59.387Z,27.17
2018-11-05T11:01:35.654Z,28.07
2018-11-05T11:04:11.234Z,32.50
2018-11-05T11:06:41.462Z,29.10
2018-11-05T11:09:12.337Z,40.20
2018-11-05T11:11:42.507Z,28.47
2018-11-05T11:14:13.315Z,36.20
2018-11-05T11:16:43.481Z,24.20
2018-11-05T11:19:14.794Z,26.73
2018-11-05T11:21:45.009Z,25.60
2018-11-05T11:24:15.408Z,27.07
2018-11-05T11:26:45.581Z,23.30
2018-11-05T11:29:16.943Z,22.27
2018-11-05T11:31:47.010Z,22.13
2018-11-05T11:34:17.305Z,20.67
2018-11-05T11:36:47.603Z,25.63
2018-11-05T11:39:17.892Z,27.50
2018-11-05T11:41:48.166Z,22.67
2018-11-05T11:44:18.473Z,29.67
2018-11-05T11:46:49.385Z,25.93
2018-11-05T11:49:19.796Z,26.90
2018-11-05T11:51:50.083Z,26.67
2018-11-05T11:54:20.401Z,22.30
2018-11-05T11:56:50.694Z,25.40
2018-11-05T11:59:21.601Z,27.93
2018-11-05T12:01:56.875Z,28.40
2018-11-05T12:04:27.201Z,29.43
2018-11-05T12:07:00.497Z,25.30
2018-11-05T12:09:30.699Z,26.90
2018-11-05T12:12:01.380Z,25.40
2018-11-05T12:14:31.949Z,27.33
2018-11-05T12:17:02.620Z,23.27
2018-11-05T12:19:34.820Z,24.47
2018-11-05T12:22:06.119Z,29.47
2018-11-05T12:24:36.484Z,36.50
2018-11-05T12:27:08.121Z,26.27
2018-11-05T12:29:38.254Z,26.37
2018-11-05T12:32:08.541Z,25.93
2018-11-05T12:34:38.711Z,25.93
2018-11-05T12:37:09.410Z,24.13
2018-11-05T12:39:39.560Z,24.80
2018-11-05T12:42:10.019Z,28.23
2018-11-05T12:44:40.232Z,28.47
2018-11-05T12:47:17.250Z,21.73
2018-11-05T12:49:47.588Z,22.00
2018-11-05T12:52:18.261Z,23.73
2018-11-05T12:54:48.378Z,26.83
2018-11-05T12:57:19.470Z,21.67
2018-11-05T12:59:49.578Z,21.90
2018-11-05T13:02:24.992Z,25.67
2018-11-05T13:04:56.307Z,23.97
2018-11-05T13:07:26.796Z,21.83
2018-11-05T13:09:56.923Z,27.03
2018-11-05T13:12:27.729Z,30.37
2018-11-05T13:14:57.872Z,28.60
2018-11-05T13:17:28.073Z,24.60
2018-11-05T13:19:58.241Z,28.90
2018-11-05T13:22:28.544Z,22.83
2018-11-05T13:24:58.518Z,23.77
2018-11-05T13:27:28.793Z,24.33
2018-11-05T13:29:58.974Z,22.00
2018-11-05T13:32:29.076Z,23.83
2018-11-05T13:34:59.224Z,33.47
2018-11-05T13:37:29.547Z,26.50
2018-11-05T13:39:59.851Z,27.07
2018-11-05T13:42:30.261Z,29.37
2018-11-05T13:45:00.456Z,27.27
2018-11-05T13:47:31.259Z,23.67
2018-11-05T13:50:01.105Z,23.50
2018-11-05T13:52:31.106Z,29.03
2018-11-05T13:55:01.536Z,33.00
2018-11-05T13:57:31.378Z,29.00
2018-11-05T14:00:01.610Z,36.67
2018-11-05T14:02:31.831Z,33.50
2018-11-05T14:05:02.186Z,28.47
2018-11-05T14:07:32.412Z,32.73
2018-11-05T14:10:02.628Z,30.97
2018-11-05T14:12:32.835Z,26.30
2018-11-05T14:15:03.117Z,30.10
2018-11-05T14:17:33.405Z,31.73
2018-11-05T14:20:03.647Z,27.03
2018-11-05T14:22:33.929Z,27.80
2018-11-05T14:25:04.158Z,31.37
2018-11-05T14:27:34.538Z,29.77
2018-11-05T14:30:06.489Z,26.10
2018-11-05T14:32:36.624Z,24.10
2018-11-05T14:35:07.126Z,19.20
2018-11-05T14:37:37.393Z,23.50
2018-11-05T14:40:09.264Z,27.37
2018-11-05T14:42:39.417Z,27.17
2018-11-05T14:45:13.192Z,22.20
2018-11-05T14:47:44.645Z,26.30
2018-11-05T14:50:17.018Z,25.90
2018-11-05T14:52:47.184Z,22.03
2018-11-05T14:55:18.840Z,25.13
2018-11-05T14:57:50.541Z,30.10
2018-11-05T15:00:26.136Z,21.27
2018-11-05T15:02:58.109Z,25.83
2018-11-05T15:05:30.645Z,28.00
2018-11-05T15:08:00.888Z,26.07
2018-11-05T15:10:32.012Z,24.17
2018-11-05T15:13:02.223Z,22.43
2018-11-05T15:15:33.394Z,21.93
2018-11-05T15:18:03.563Z,26.13
2018-11-05T15:20:33.765Z,19.77
2018-11-05T15:23:04.369Z,22.97
2018-11-05T15:25:34.462Z,27.33
2018-11-05T15:28:04.688Z,25.83
2018-11-05T15:30:34.738Z,29.00
2018-11-05T15:33:05.001Z,39.67
2018-11-05T15:35:35.491Z,32.23
2018-11-05T15:38:06.326Z,30.20
2018-11-05T15:40:38.881Z,30.00
2018-11-05T15:43:11.336Z,29.23
2018-11-05T15:45:41.639Z,26.00
2018-11-05T15:48:11.762Z,30.10
2018-11-05T15:50:42.240Z,29.57
2018-11-05T15:53:12.713Z,34.60
2018-11-05T15:55:43.225Z,31.50
2018-11-05T15:58:13.408Z,29.90
2018-11-05T16:00:43.534Z,36.33
2018-11-05T16:03:14.079Z,31.03
2018-11-05T16:05:44.691Z,54.10
2018-11-05T16:08:14.956Z,45.17
2018-11-05T16:10:45.323Z,42.87
2018-11-05T16:13:16.427Z,33.97
2018-11-05T16:15:47.658Z,25.40
2018-11-05T16:18:18.108Z,35.53
2018-11-05T16:20:50.137Z,23.83
2018-11-05T16:23:20.512Z,28.13
2018-11-05T16:25:56.468Z,31.20
2018-11-05T16:28:27.452Z,50.63
2018-11-05T16:31:01.156Z,40.87
2018-11-05T16:33:31.530Z,37.53
2018-11-05T16:36:01.757Z,34.37
2018-11-05T16:38:31.991Z,45.93
2018-11-05T16:41:02.413Z,35.97
2018-11-05T16:43:32.657Z,35.87
2018-11-05T16:46:03.271Z,54.40
2018-11-05T16:48:33.480Z,38.17
2018-11-05T16:51:03.766Z,35.90
2018-11-05T16:53:33.923Z,38.80
2018-11-05T16:56:04.212Z,36.27
2018-11-05T16:58:34.479Z,46.67
2018-11-05T17:01:05.160Z,51.07
2018-11-05T17:03:35.364Z,45.80
2018-11-05T17:06:05.786Z,47.00
2018-11-05T17:08:35.960Z,33.60
2018-11-05T17:11:06.370Z,32.43
2018-11-05T17:13:38.726Z,35.57
2018-11-05T17:16:08.683Z,32.17
2018-11-05T17:18:38.969Z,29.30
2018-11-05T17:21:09.236Z,28.73
2018-11-05T17:23:40.098Z,26.27
2018-11-05T17:26:10.387Z,27.53
2018-11-05T17:28:40.959Z,41.50
2018-11-05T17:31:11.103Z,33.13
2018-11-05T17:33:41.971Z,30.23
2018-11-05T17:36:17.486Z,26.73
2018-11-05T17:38:53.596Z,25.57
2018-11-05T17:41:23.957Z,28.93
2018-11-05T17:44:00.628Z,33.97
2018-11-05T17:46:30.890Z,29.83
2018-11-05T17:49:03.995Z,30.97
2018-11-05T17:51:34.308Z,26.83
2018-11-05T17:54:04.636Z,28.60
2018-11-05T17:56:34.862Z,25.73
2018-11-05T17:59:05.479Z,25.40
2018-11-05T18:01:35.739Z,29.70
2018-11-05T18:04:06.934Z,29.63
2018-11-05T18:06:37.002Z,27.67
2018-11-05T18:09:09.675Z,24.40
2018-11-05T18:11:39.935Z,28.33
2018-11-05T18:14:10.117Z,22.03
2018-11-05T18:16:40.275Z,26.43
2018-11-05T18:19:10.444Z,27.67
2018-11-05T18:21:40.654Z,29.73
2018-11-05T18:24:11.083Z,24.60
2018-11-05T18:26:41.289Z,25.83
2018-11-05T18:29:11.465Z,25.23
2018-11-05T18:31:42.167Z,29.30
2018-11-05T18:34:12.385Z,25.40
2018-11-05T18:36:42.614Z,23.93
2018-11-05T18:39:12.763Z,23.90
2018-11-05T18:41:43.289Z,31.77
2018-11-05T18:44:13.471Z,30.67
2018-11-05T18:46:43.801Z,29.47
2018-11-05T18:49:14.439Z,30.63
2018-11-05T18:51:44.700Z,31.97
2018-11-05T18:54:14.893Z,34.73
2018-11-05T18:56:45.063Z,35.93
2018-11-05T18:59:15.331Z,28.90
2018-11-05T19:01:45.541Z,25.60
2018-11-05T19:04:15.931Z,25.93
2018-11-05T19:06:46.334Z,35.33
2018-11-05T19:09:16.533Z,29.70
2018-11-05T19:11:46.908Z,31.30
2018-11-05T19:14:18.009Z,28.57
2018-11-05T19:16:49.943Z,40.40
2018-11-05T19:19:20.402Z,28.57
2018-11-05T19:21:50.887Z,30.33
2018-11-05T19:24:21.258Z,33.07
2018-11-05T19:26:52.300Z,32.80
2018-11-05T19:29:22.683Z,35.43
2018-11-05T19:31:54.248Z,33.80
2018-11-05T19:34:24.658Z,32.67
2018-11-05T19:36:55.137Z,33.77
2018-11-05T19:39:25.339Z,32.43
2018-11-05T19:41:55.702Z,31.53
2018-11-05T19:44:25.832Z,31.10
2018-11-05T19:46:56.056Z,34.17
2018-11-05T19:49:27.238Z,36.70
2018-11-05T19:51:57.463Z,36.43
2018-11-05T19:54:27.721Z,30.17
2018-11-05T19:56:57.863Z,39.50
2018-11-05T19:59:28.082Z,32.70
2018-11-05T20:01:58.319Z,29.73
2018-11-05T20:04:36.217Z,30.27
2018-11-05T20:10:16.096Z,32.87
2018-11-05T20:12:46.641Z,31.43
2018-11-05T20:15:17.121Z,37.23
2018-11-05T20:17:47.996Z,32.53
2018-11-05T20:20:19.469Z,36.00
2018-11-05T20:22:49.674Z,37.20
2018-11-05T20:25:19.910Z,36.97
2018-11-05T20:27:50.673Z,34.70
2018-11-05T20:30:25.183Z,42.87
2018-11-05T20:32:58.874Z,39.80
2018-11-05T20:35:39.493Z,44.03
2018-11-05T20:38:10.918Z,38.47
2018-11-05T20:40:44.870Z,37.50
2018-11-05T20:43:15.090Z,44.70
2018-11-05T20:45:49.651Z,40.03
2018-11-05T20:48:22.513Z,37.10
2018-11-05T20:50:58.903Z,37.33
2018-11-05T20:53:31.226Z,34.67
2018-11-05T20:56:01.489Z,42.90
2018-11-05T20:58:31.673Z,36.50
2018-11-05T21:01:01.823Z,41.77
2018-11-05T21:03:32.100Z,44.37
2018-11-05T21:06:03.479Z,37.10
2018-11-05T21:08:33.777Z,38.27
2018-11-05T21:11:04.022Z,38.03
2018-11-05T21:13:34.578Z,40.70
2018-11-05T21:16:04.804Z,34.80
2018-11-05T21:18:35.056Z,39.80
2018-11-05T21:21:06.313Z,46.50
2018-11-05T21:23:36.428Z,45.43
2018-11-05T21:26:07.564Z,41.63
2018-11-05T21:28:37.656Z,55.30
2018-11-05T21:31:07.802Z,42.97
2018-11-05T21:33:37.906Z,48.00
2018-11-05T21:36:08.129Z,39.10
2018-11-05T21:38:38.256Z,39.07
2018-11-05T21:41:08.409Z,46.10
2018-11-05T21:43:38.585Z,41.73
2018-11-05T21:46:08.897Z,49.77
2018-11-05T21:48:39.011Z,46.17
2018-11-05T21:51:09.215Z,45.17
2018-11-05T21:53:39.623Z,48.57
2018-11-05T21:56:09.819Z,45.80
2018-11-05T21:58:39.889Z,45.30
2018-11-05T22:01:10.040Z,42.77
2018-11-05T22:03:40.433Z,45.00
2018-11-05T22:06:10.587Z,43.50
2018-11-05T22:08:40.777Z,46.27
2018-11-05T22:11:10.983Z,48.07
2018-11-05T22:13:41.126Z,52.70
2018-11-05T22:16:11.233Z,46.80
2018-11-05T22:18:41.381Z,52.27
2018-11-05T22:21:11.572Z,45.50
2018-11-05T22:23:41.806Z,47.90
2018-11-05T22:26:11.969Z,44.50
2018-11-05T22:28:42.227Z,42.43
2018-11-05T22:31:12.368Z,37.03
2018-11-05T22:33:42.940Z,40.87
2018-11-05T22:36:13.261Z,41.20
2018-11-05T22:38:43.720Z,41.43
2018-11-05T22:41:13.882Z,42.83
2018-11-05T22:43:44.341Z,38.47
2018-11-05T22:46:14.542Z,39.30
2018-11-05T22:48:44.849Z,44.13
2018-11-05T22:51:15.080Z,46.30
2018-11-05T22:53:45.262Z,46.83
2018-11-05T22:56:15.467Z,41.20
2018-11-05T22:58:45.692Z,41.43
2018-11-05T23:01:20.887Z,49.53
2018-11-05T23:03:51.008Z,37.33
2018-11-05T23:06:21.127Z,40.43
2018-11-05T23:08:51.261Z,36.27
2018-11-05T23:11:21.418Z,43.03
2018-11-05T23:13:51.479Z,40.30
2018-11-05T23:16:21.628Z,39.87
2018-11-05T23:18:51.723Z,35.17
2018-11-05T23:21:21.845Z,40.93
2018-11-05T23:23:51.964Z,35.33
2018-11-05T23:26:22.367Z,40.70
2018-11-05T23:28:52.589Z,45.13
2018-11-05T23:31:22.718Z,43.10
2018-11-05T23:33:52.819Z,36.73
2018-11-05T23:36:23.136Z,46.47
2018-11-05T23:38:53.281Z,42.77
2018-11-05T23:41:23.453Z,42.17
2018-11-05T23:43:53.577Z,45.70
2018-11-05T23:46:23.740Z,39.43
2018-11-05T23:48:53.901Z,43.57
2018-11-05T23:51:24.068Z,42.93
2018-11-05T23:53:54.139Z,44.50
2018-11-05T23:56:24.199Z,39.77
2018-11-05T23:58:54.385Z,42.43
